sensor_id;sensor_type;location;lat;lon;timestamp;P1;durP1;ratioP1;P2;durP2;ratioP2
40591;SDS011;26301;42.832;23.918;2024-01-25T00:00:15;1.60;;;0.40;;
40591;SDS011;26301;42.832;23.918;2024-01-25T00:02:41;1.48;;;0.38;;
40591;SDS011;26301;42.832;23.918;2024-01-25T00:05:07;0.45;;;0.30;;
40591;SDS011;26301;42.832;23.918;2024-01-25T00:07:32;0.75;;;0.40;;
40591;SDS011;26301;42.832;23.918;2024-01-25T00:09:58;0.38;;;0.38;;
40591;SDS011;26301;42.832;23.918;2024-01-25T00:12:23;0.68;;;0.30;;
40591;SDS011;26301;42.832;23.918;2024-01-25T00:14:49;0.77;;;0.40;;
40591;SDS011;26301;42.832;23.918;2024-01-25T00:17:14;0.73;;;0.45;;
40591;SDS011;26301;42.832;23.918;2024-01-25T00:19:40;0.28;;;0.20;;
40591;SDS011;26301;42.832;23.918;2024-01-25T00:22:06;0.88;;;0.35;;
40591;SDS011;26301;42.832;23.918;2024-01-25T00:24:32;0.30;;;0.30;;
40591;SDS011;26301;42.832;23.918;2024-01-25T00:26:58;0.93;;;0.20;;
40591;SDS011;26301;42.832;23.918;2024-01-25T00:29:23;0.30;;;0.30;;
40591;SDS011;26301;42.832;23.918;2024-01-25T00:31:49;0.30;;;0.30;;
40591;SDS011;26301;42.832;23.918;2024-01-25T00:34:15;1.35;;;0.57;;
40591;SDS011;26301;42.832;23.918;2024-01-25T00:36:41;0.40;;;0.40;;
40591;SDS011;26301;42.832;23.918;2024-01-25T00:39:07;0.55;;;0.40;;
40591;SDS011;26301;42.832;23.918;2024-01-25T00:41:33;1.30;;;0.30;;
40591;SDS011;26301;42.832;23.918;2024-01-25T00:43:59;0.35;;;0.30;;
40591;SDS011;26301;42.832;23.918;2024-01-25T00:46:25;0.30;;;0.30;;
40591;SDS011;26301;42.832;23.918;2024-01-25T00:48:51;0.35;;;0.30;;
40591;SDS011;26301;42.832;23.918;2024-01-25T00:51:20;0.30;;;0.30;;
40591;SDS011;26301;42.832;23.918;2024-01-25T00:53:47;0.45;;;0.30;;
40591;SDS011;26301;42.832;23.918;2024-01-25T00:56:13;1.15;;;0.40;;
40591;SDS011;26301;42.832;23.918;2024-01-25T00:58:39;1.27;;;0.57;;
40591;SDS011;26301;42.832;23.918;2024-01-25T01:01:04;1.17;;;0.57;;
40591;SDS011;26301;42.832;23.918;2024-01-25T01:03:30;0.47;;;0.30;;
40591;SDS011;26301;42.832;23.918;2024-01-25T01:05:56;0.30;;;0.30;;
40591;SDS011;26301;42.832;23.918;2024-01-25T01:08:23;0.75;;;0.45;;
40591;SDS011;26301;42.832;23.918;2024-01-25T01:10:48;0.43;;;0.30;;
40591;SDS011;26301;42.832;23.918;2024-01-25T01:13:14;0.80;;;0.45;;
40591;SDS011;26301;42.832;23.918;2024-01-25T01:15:39;1.30;;;0.45;;
40591;SDS011;26301;42.832;23.918;2024-01-25T01:18:05;0.52;;;0.50;;
40591;SDS011;26301;42.832;23.918;2024-01-25T01:20:30;1.33;;;0.57;;
40591;SDS011;26301;42.832;23.918;2024-01-25T01:22:56;3.50;;;1.30;;
40591;SDS011;26301;42.832;23.918;2024-01-25T01:25:21;6.03;;;2.47;;
40591;SDS011;26301;42.832;23.918;2024-01-25T01:27:47;2.05;;;0.90;;
40591;SDS011;26301;42.832;23.918;2024-01-25T01:30:12;0.93;;;0.55;;
40591;SDS011;26301;42.832;23.918;2024-01-25T01:32:38;0.68;;;0.40;;
40591;SDS011;26301;42.832;23.918;2024-01-25T01:35:04;2.28;;;0.90;;
40591;SDS011;26301;42.832;23.918;2024-01-25T01:37:29;0.60;;;0.45;;
40591;SDS011;26301;42.832;23.918;2024-01-25T01:39:55;1.30;;;0.70;;
40591;SDS011;26301;42.832;23.918;2024-01-25T01:42:21;0.77;;;0.57;;
40591;SDS011;26301;42.832;23.918;2024-01-25T01:44:48;1.05;;;0.50;;
40591;SDS011;26301;42.832;23.918;2024-01-25T01:47:15;0.73;;;0.52;;
40591;SDS011;26301;42.832;23.918;2024-01-25T01:49:40;0.95;;;0.40;;
40591;SDS011;26301;42.832;23.918;2024-01-25T01:52:07;1.42;;;0.60;;
40591;SDS011;26301;42.832;23.918;2024-01-25T01:54:33;0.43;;;0.43;;
40591;SDS011;26301;42.832;23.918;2024-01-25T01:56:59;0.85;;;0.60;;
40591;SDS011;26301;42.832;23.918;2024-01-25T01:59:24;1.48;;;0.80;;
40591;SDS011;26301;42.832;23.918;2024-01-25T02:01:51;0.80;;;0.50;;
40591;SDS011;26301;42.832;23.918;2024-01-25T02:04:17;0.90;;;0.50;;
40591;SDS011;26301;42.832;23.918;2024-01-25T02:06:42;2.05;;;0.60;;
40591;SDS011;26301;42.832;23.918;2024-01-25T02:09:08;1.73;;;0.43;;
40591;SDS011;26301;42.832;23.918;2024-01-25T02:11:35;1.00;;;0.60;;
40591;SDS011;26301;42.832;23.918;2024-01-25T02:14:00;2.67;;;1.15;;
40591;SDS011;26301;42.832;23.918;2024-01-25T02:16:25;1.55;;;0.70;;
40591;SDS011;26301;42.832;23.918;2024-01-25T02:18:51;2.30;;;0.40;;
40591;SDS011;26301;42.832;23.918;2024-01-25T02:21:19;2.22;;;1.48;;
40591;SDS011;26301;42.832;23.918;2024-01-25T02:23:44;1.00;;;0.75;;
40591;SDS011;26301;42.832;23.918;2024-01-25T02:26:10;1.05;;;0.57;;
40591;SDS011;26301;42.832;23.918;2024-01-25T02:28:36;0.70;;;0.65;;
40591;SDS011;26301;42.832;23.918;2024-01-25T02:31:01;1.23;;;0.55;;
40591;SDS011;26301;42.832;23.918;2024-01-25T02:33:27;0.88;;;0.43;;
40591;SDS011;26301;42.832;23.918;2024-01-25T02:35:53;0.85;;;0.50;;
40591;SDS011;26301;42.832;23.918;2024-01-25T02:38:18;0.30;;;0.30;;
40591;SDS011;26301;42.832;23.918;2024-01-25T02:40:44;0.43;;;0.35;;
40591;SDS011;26301;42.832;23.918;2024-01-25T02:43:10;0.73;;;0.50;;
40591;SDS011;26301;42.832;23.918;2024-01-25T02:45:35;1.20;;;0.55;;
40591;SDS011;26301;42.832;23.918;2024-01-25T02:48:00;1.23;;;0.70;;
40591;SDS011;26301;42.832;23.918;2024-01-25T02:50:27;1.23;;;0.60;;
40591;SDS011;26301;42.832;23.918;2024-01-25T02:52:52;0.90;;;0.50;;
40591;SDS011;26301;42.832;23.918;2024-01-25T02:55:18;1.25;;;0.68;;
40591;SDS011;26301;42.832;23.918;2024-01-25T02:57:44;0.77;;;0.40;;
40591;SDS011;26301;42.832;23.918;2024-01-25T03:00:10;0.75;;;0.50;;
40591;SDS011;26301;42.832;23.918;2024-01-25T03:02:35;0.30;;;0.30;;
40591;SDS011;26301;42.832;23.918;2024-01-25T03:05:01;0.90;;;0.45;;
40591;SDS011;26301;42.832;23.918;2024-01-25T03:07:26;0.63;;;0.50;;
40591;SDS011;26301;42.832;23.918;2024-01-25T03:09:52;3.83;;;0.43;;
40591;SDS011;26301;42.832;23.918;2024-01-25T03:12:17;2.28;;;0.60;;
40591;SDS011;26301;42.832;23.918;2024-01-25T03:14:44;1.60;;;0.60;;
40591;SDS011;26301;42.832;23.918;2024-01-25T03:17:10;0.85;;;0.40;;
40591;SDS011;26301;42.832;23.918;2024-01-25T03:19:37;1.08;;;0.60;;
40591;SDS011;26301;42.832;23.918;2024-01-25T03:22:02;2.38;;;0.70;;
40591;SDS011;26301;42.832;23.918;2024-01-25T03:24:28;0.60;;;0.47;;
40591;SDS011;26301;42.832;23.918;2024-01-25T03:26:54;1.08;;;0.57;;
40591;SDS011;26301;42.832;23.918;2024-01-25T03:29:20;0.65;;;0.50;;
40591;SDS011;26301;42.832;23.918;2024-01-25T03:31:46;1.38;;;0.55;;
40591;SDS011;26301;42.832;23.918;2024-01-25T03:34:12;1.10;;;0.52;;
40591;SDS011;26301;42.832;23.918;2024-01-25T03:36:38;0.73;;;0.50;;
40591;SDS011;26301;42.832;23.918;2024-01-25T03:39:04;0.88;;;0.60;;
40591;SDS011;26301;42.832;23.918;2024-01-25T03:41:31;1.63;;;0.68;;
40591;SDS011;26301;42.832;23.918;2024-01-25T03:43:56;1.85;;;0.60;;
40591;SDS011;26301;42.832;23.918;2024-01-25T03:46:21;2.30;;;0.70;;
40591;SDS011;26301;42.832;23.918;2024-01-25T03:48:47;0.63;;;0.47;;
40591;SDS011;26301;42.832;23.918;2024-01-25T03:51:13;2.55;;;0.50;;
40591;SDS011;26301;42.832;23.918;2024-01-25T03:53:38;3.63;;;1.00;;
40591;SDS011;26301;42.832;23.918;2024-01-25T03:56:09;1.98;;;0.60;;
40591;SDS011;26301;42.832;23.918;2024-01-25T03:58:37;4.35;;;0.90;;
40591;SDS011;26301;42.832;23.918;2024-01-25T04:01:02;0.80;;;0.60;;
40591;SDS011;26301;42.832;23.918;2024-01-25T04:03:28;0.60;;;0.50;;
40591;SDS011;26301;42.832;23.918;2024-01-25T04:05:53;0.47;;;0.47;;
40591;SDS011;26301;42.832;23.918;2024-01-25T04:08:19;0.90;;;0.60;;
40591;SDS011;26301;42.832;23.918;2024-01-25T04:10:44;1.15;;;0.57;;
40591;SDS011;26301;42.832;23.918;2024-01-25T04:13:10;0.57;;;0.57;;
40591;SDS011;26301;42.832;23.918;2024-01-25T04:15:35;1.35;;;0.98;;
40591;SDS011;26301;42.832;23.918;2024-01-25T04:18:01;1.90;;;0.75;;
40591;SDS011;26301;42.832;23.918;2024-01-25T04:20:26;1.13;;;0.68;;
40591;SDS011;26301;42.832;23.918;2024-01-25T04:22:52;0.90;;;0.70;;
40591;SDS011;26301;42.832;23.918;2024-01-25T04:25:17;1.48;;;0.80;;
40591;SDS011;26301;42.832;23.918;2024-01-25T04:27:43;1.23;;;0.60;;
40591;SDS011;26301;42.832;23.918;2024-01-25T04:30:09;1.60;;;0.60;;
40591;SDS011;26301;42.832;23.918;2024-01-25T04:32:35;3.25;;;1.70;;
40591;SDS011;26301;42.832;23.918;2024-01-25T04:35:00;6.27;;;2.70;;
40591;SDS011;26301;42.832;23.918;2024-01-25T04:37:26;3.73;;;2.27;;
40591;SDS011;26301;42.832;23.918;2024-01-25T04:39:52;4.37;;;2.20;;
40591;SDS011;26301;42.832;23.918;2024-01-25T04:42:17;3.20;;;2.25;;
40591;SDS011;26301;42.832;23.918;2024-01-25T04:44:43;3.10;;;1.23;;
40591;SDS011;26301;42.832;23.918;2024-01-25T04:47:08;2.33;;;1.30;;
40591;SDS011;26301;42.832;23.918;2024-01-25T04:49:34;3.13;;;1.73;;
40591;SDS011;26301;42.832;23.918;2024-01-25T04:52:00;2.67;;;1.53;;
40591;SDS011;26301;42.832;23.918;2024-01-25T04:54:25;1.07;;;0.77;;
40591;SDS011;26301;42.832;23.918;2024-01-25T04:56:51;3.60;;;1.60;;
40591;SDS011;26301;42.832;23.918;2024-01-25T04:59:16;1.98;;;1.10;;
40591;SDS011;26301;42.832;23.918;2024-01-25T05:01:42;7.80;;;3.20;;
40591;SDS011;26301;42.832;23.918;2024-01-25T05:04:07;7.67;;;3.40;;
40591;SDS011;26301;42.832;23.918;2024-01-25T05:06:33;12.33;;;6.40;;
40591;SDS011;26301;42.832;23.918;2024-01-25T05:08:58;4.57;;;1.73;;
40591;SDS011;26301;42.832;23.918;2024-01-25T05:11:24;2.53;;;1.13;;
40591;SDS011;26301;42.832;23.918;2024-01-25T05:13:49;2.13;;;1.47;;
40591;SDS011;26301;42.832;23.918;2024-01-25T05:16:15;4.30;;;1.90;;
40591;SDS011;26301;42.832;23.918;2024-01-25T05:18:40;2.57;;;1.77;;
40591;SDS011;26301;42.832;23.918;2024-01-25T05:21:06;3.43;;;1.87;;
40591;SDS011;26301;42.832;23.918;2024-01-25T05:23:31;2.23;;;1.40;;
40591;SDS011;26301;42.832;23.918;2024-01-25T05:25:57;2.03;;;1.10;;
40591;SDS011;26301;42.832;23.918;2024-01-25T05:28:22;2.07;;;1.20;;
40591;SDS011;26301;42.832;23.918;2024-01-25T05:30:49;2.77;;;1.40;;
40591;SDS011;26301;42.832;23.918;2024-01-25T05:33:15;3.07;;;0.93;;
40591;SDS011;26301;42.832;23.918;2024-01-25T05:35:40;1.37;;;0.80;;
40591;SDS011;26301;42.832;23.918;2024-01-25T05:38:06;1.03;;;0.83;;
40591;SDS011;26301;42.832;23.918;2024-01-25T05:40:31;2.33;;;1.13;;
40591;SDS011;26301;42.832;23.918;2024-01-25T05:42:57;4.03;;;1.63;;
40591;SDS011;26301;42.832;23.918;2024-01-25T05:45:22;2.83;;;1.13;;
40591;SDS011;26301;42.832;23.918;2024-01-25T05:47:49;1.90;;;1.10;;
40591;SDS011;26301;42.832;23.918;2024-01-25T05:50:15;3.03;;;1.20;;
40591;SDS011;26301;42.832;23.918;2024-01-25T05:52:41;6.03;;;2.93;;
40591;SDS011;26301;42.832;23.918;2024-01-25T05:55:06;3.43;;;1.50;;
40591;SDS011;26301;42.832;23.918;2024-01-25T05:57:34;2.93;;;1.40;;
40591;SDS011;26301;42.832;23.918;2024-01-25T06:00:00;10.20;;;5.00;;
40591;SDS011;26301;42.832;23.918;2024-01-25T06:02:26;17.83;;;8.63;;
40591;SDS011;26301;42.832;23.918;2024-01-25T06:04:51;12.63;;;8.47;;
40591;SDS011;26301;42.832;23.918;2024-01-25T06:07:17;13.47;;;7.27;;
40591;SDS011;26301;42.832;23.918;2024-01-25T06:09:42;10.07;;;5.53;;
40591;SDS011;26301;42.832;23.918;2024-01-25T06:12:08;14.30;;;8.60;;
40591;SDS011;26301;42.832;23.918;2024-01-25T06:14:33;11.93;;;6.57;;
40591;SDS011;26301;42.832;23.918;2024-01-25T06:16:59;11.63;;;4.67;;
40591;SDS011;26301;42.832;23.918;2024-01-25T06:19:24;5.57;;;3.20;;
40591;SDS011;26301;42.832;23.918;2024-01-25T06:21:50;7.20;;;4.30;;
40591;SDS011;26301;42.832;23.918;2024-01-25T06:24:15;6.67;;;3.80;;
40591;SDS011;26301;42.832;23.918;2024-01-25T06:26:41;6.10;;;3.90;;
40591;SDS011;26301;42.832;23.918;2024-01-25T06:29:06;5.73;;;3.43;;
40591;SDS011;26301;42.832;23.918;2024-01-25T06:31:31;2.47;;;1.70;;
40591;SDS011;26301;42.832;23.918;2024-01-25T06:33:57;5.20;;;3.20;;
40591;SDS011;26301;42.832;23.918;2024-01-25T06:36:22;3.47;;;2.50;;
40591;SDS011;26301;42.832;23.918;2024-01-25T06:38:48;4.67;;;2.53;;
40591;SDS011;26301;42.832;23.918;2024-01-25T06:41:14;4.27;;;2.30;;
40591;SDS011;26301;42.832;23.918;2024-01-25T06:43:42;4.77;;;2.37;;
40591;SDS011;26301;42.832;23.918;2024-01-25T06:46:07;5.20;;;2.13;;
40591;SDS011;26301;42.832;23.918;2024-01-25T06:48:33;5.23;;;2.30;;
40591;SDS011;26301;42.832;23.918;2024-01-25T06:50:59;3.50;;;2.00;;
40591;SDS011;26301;42.832;23.918;2024-01-25T06:53:26;2.93;;;1.30;;
40591;SDS011;26301;42.832;23.918;2024-01-25T06:55:51;3.57;;;1.80;;
40591;SDS011;26301;42.832;23.918;2024-01-25T06:58:17;4.10;;;1.73;;
40591;SDS011;26301;42.832;23.918;2024-01-25T07:00:43;2.97;;;2.00;;
40591;SDS011;26301;42.832;23.918;2024-01-25T07:03:10;6.47;;;3.47;;
40591;SDS011;26301;42.832;23.918;2024-01-25T07:05:35;5.80;;;2.67;;
40591;SDS011;26301;42.832;23.918;2024-01-25T07:08:01;7.03;;;3.43;;
40591;SDS011;26301;42.832;23.918;2024-01-25T07:10:27;3.80;;;2.30;;
40591;SDS011;26301;42.832;23.918;2024-01-25T07:12:53;4.30;;;2.80;;
40591;SDS011;26301;42.832;23.918;2024-01-25T07:15:19;5.37;;;2.33;;
40591;SDS011;26301;42.832;23.918;2024-01-25T07:17:45;30.90;;;20.20;;
40591;SDS011;26301;42.832;23.918;2024-01-25T07:20:10;14.93;;;9.13;;
40591;SDS011;26301;42.832;23.918;2024-01-25T07:22:36;6.13;;;3.90;;
40591;SDS011;26301;42.832;23.918;2024-01-25T07:25:02;3.90;;;1.83;;
40591;SDS011;26301;42.832;23.918;2024-01-25T07:27:27;3.60;;;2.03;;
40591;SDS011;26301;42.832;23.918;2024-01-25T07:29:53;2.63;;;1.50;;
40591;SDS011;26301;42.832;23.918;2024-01-25T07:32:19;3.80;;;1.70;;
40591;SDS011;26301;42.832;23.918;2024-01-25T07:34:45;4.63;;;1.80;;
40591;SDS011;26301;42.832;23.918;2024-01-25T07:37:11;3.93;;;1.50;;
40591;SDS011;26301;42.832;23.918;2024-01-25T07:39:37;3.93;;;1.27;;
40591;SDS011;26301;42.832;23.918;2024-01-25T07:42:02;4.70;;;1.67;;
40591;SDS011;26301;42.832;23.918;2024-01-25T07:44:28;4.53;;;1.40;;
40591;SDS011;26301;42.832;23.918;2024-01-25T07:46:53;10.27;;;5.70;;
40591;SDS011;26301;42.832;23.918;2024-01-25T07:49:19;4.60;;;2.03;;
40591;SDS011;26301;42.832;23.918;2024-01-25T07:51:44;4.63;;;1.70;;
40591;SDS011;26301;42.832;23.918;2024-01-25T07:54:10;4.53;;;1.80;;
40591;SDS011;26301;42.832;23.918;2024-01-25T07:56:35;5.27;;;2.90;;
40591;SDS011;26301;42.832;23.918;2024-01-25T07:59:01;3.97;;;1.57;;
40591;SDS011;26301;42.832;23.918;2024-01-25T08:01:26;3.73;;;1.67;;
40591;SDS011;26301;42.832;23.918;2024-01-25T08:03:52;3.00;;;1.63;;
40591;SDS011;26301;42.832;23.918;2024-01-25T08:06:17;5.40;;;2.20;;
40591;SDS011;26301;42.832;23.918;2024-01-25T08:08:43;11.13;;;4.53;;
40591;SDS011;26301;42.832;23.918;2024-01-25T08:11:08;5.72;;;3.53;;
40591;SDS011;26301;42.832;23.918;2024-01-25T08:13:34;4.03;;;2.07;;
40591;SDS011;26301;42.832;23.918;2024-01-25T08:15:59;8.77;;;4.30;;
40591;SDS011;26301;42.832;23.918;2024-01-25T08:18:24;5.83;;;3.53;;
40591;SDS011;26301;42.832;23.918;2024-01-25T08:20:52;8.60;;;3.45;;
40591;SDS011;26301;42.832;23.918;2024-01-25T08:23:17;5.57;;;2.80;;
40591;SDS011;26301;42.832;23.918;2024-01-25T08:25:43;3.97;;;1.90;;
40591;SDS011;26301;42.832;23.918;2024-01-25T08:28:09;4.07;;;1.20;;
40591;SDS011;26301;42.832;23.918;2024-01-25T08:30:35;4.30;;;1.40;;
40591;SDS011;26301;42.832;23.918;2024-01-25T08:33:00;6.32;;;2.03;;
40591;SDS011;26301;42.832;23.918;2024-01-25T08:35:25;5.03;;;1.20;;
40591;SDS011;26301;42.832;23.918;2024-01-25T08:37:51;3.53;;;1.02;;
40591;SDS011;26301;42.832;23.918;2024-01-25T08:40:17;9.98;;;1.95;;
40591;SDS011;26301;42.832;23.918;2024-01-25T08:42:42;3.70;;;1.08;;
40591;SDS011;26301;42.832;23.918;2024-01-25T08:45:08;7.05;;;1.35;;
40591;SDS011;26301;42.832;23.918;2024-01-25T08:47:35;5.70;;;1.30;;
40591;SDS011;26301;42.832;23.918;2024-01-25T08:50:00;6.30;;;2.00;;
40591;SDS011;26301;42.832;23.918;2024-01-25T08:52:26;4.20;;;1.33;;
40591;SDS011;26301;42.832;23.918;2024-01-25T08:54:52;6.63;;;1.40;;
40591;SDS011;26301;42.832;23.918;2024-01-25T08:57:17;4.25;;;1.67;;
40591;SDS011;26301;42.832;23.918;2024-01-25T08:59:43;5.25;;;1.38;;
40591;SDS011;26301;42.832;23.918;2024-01-25T09:02:08;5.65;;;1.50;;
40591;SDS011;26301;42.832;23.918;2024-01-25T09:04:34;3.58;;;1.40;;
40591;SDS011;26301;42.832;23.918;2024-01-25T09:06:59;5.03;;;2.20;;
40591;SDS011;26301;42.832;23.918;2024-01-25T09:09:24;7.32;;;1.50;;
40591;SDS011;26301;42.832;23.918;2024-01-25T09:11:50;3.97;;;1.20;;
40591;SDS011;26301;42.832;23.918;2024-01-25T09:14:16;4.05;;;1.45;;
40591;SDS011;26301;42.832;23.918;2024-01-25T09:16:41;6.40;;;2.95;;
40591;SDS011;26301;42.832;23.918;2024-01-25T09:19:07;4.88;;;1.73;;
40591;SDS011;26301;42.832;23.918;2024-01-25T09:21:33;5.53;;;1.98;;
40591;SDS011;26301;42.832;23.918;2024-01-25T09:23:58;5.32;;;1.98;;
40591;SDS011;26301;42.832;23.918;2024-01-25T09:26:24;4.32;;;1.90;;
40591;SDS011;26301;42.832;23.918;2024-01-25T09:28:50;5.10;;;1.58;;
40591;SDS011;26301;42.832;23.918;2024-01-25T09:31:16;6.70;;;1.70;;
40591;SDS011;26301;42.832;23.918;2024-01-25T09:33:41;4.30;;;1.33;;
40591;SDS011;26301;42.832;23.918;2024-01-25T09:36:06;4.07;;;1.40;;
40591;SDS011;26301;42.832;23.918;2024-01-25T09:38:32;6.82;;;1.73;;
40591;SDS011;26301;42.832;23.918;2024-01-25T09:40:58;8.13;;;1.60;;
40591;SDS011;26301;42.832;23.918;2024-01-25T09:43:24;4.05;;;1.40;;
40591;SDS011;26301;42.832;23.918;2024-01-25T09:45:52;9.07;;;3.00;;
40591;SDS011;26301;42.832;23.918;2024-01-25T09:48:19;6.45;;;1.23;;
40591;SDS011;26301;42.832;23.918;2024-01-25T09:50:46;7.05;;;1.55;;
40591;SDS011;26301;42.832;23.918;2024-01-25T09:53:14;4.90;;;2.00;;
40591;SDS011;26301;42.832;23.918;2024-01-25T09:55:45;9.27;;;3.90;;
40591;SDS011;26301;42.832;23.918;2024-01-25T09:58:44;7.63;;;2.25;;
40591;SDS011;26301;42.832;23.918;2024-01-25T10:01:13;5.18;;;1.38;;
40591;SDS011;26301;42.832;23.918;2024-01-25T10:03:43;4.78;;;1.38;;
40591;SDS011;26301;42.832;23.918;2024-01-25T10:06:12;4.55;;;1.50;;
40591;SDS011;26301;42.832;23.918;2024-01-25T10:08:38;4.70;;;1.40;;
40591;SDS011;26301;42.832;23.918;2024-01-25T10:11:04;6.40;;;1.30;;
40591;SDS011;26301;42.832;23.918;2024-01-25T10:13:30;4.95;;;1.63;;
40591;SDS011;26301;42.832;23.918;2024-01-25T10:15:56;9.00;;;1.60;;
40591;SDS011;26301;42.832;23.918;2024-01-25T10:18:22;9.55;;;1.33;;
40591;SDS011;26301;42.832;23.918;2024-01-25T10:20:48;4.90;;;1.63;;
40591;SDS011;26301;42.832;23.918;2024-01-25T10:23:14;5.22;;;1.80;;
40591;SDS011;26301;42.832;23.918;2024-01-25T10:25:39;6.32;;;1.48;;
40591;SDS011;26301;42.832;23.918;2024-01-25T10:28:05;4.13;;;1.20;;
40591;SDS011;26301;42.832;23.918;2024-01-25T10:30:32;4.60;;;1.52;;
40591;SDS011;26301;42.832;23.918;2024-01-25T10:32:59;9.05;;;1.73;;
40591;SDS011;26301;42.832;23.918;2024-01-25T10:35:25;3.63;;;1.45;;
40591;SDS011;26301;42.832;23.918;2024-01-25T10:37:52;5.07;;;1.83;;
40591;SDS011;26301;42.832;23.918;2024-01-25T10:40:18;3.67;;;1.30;;
40591;SDS011;26301;42.832;23.918;2024-01-25T10:42:44;5.28;;;1.90;;
40591;SDS011;26301;42.832;23.918;2024-01-25T10:45:10;5.32;;;1.92;;
40591;SDS011;26301;42.832;23.918;2024-01-25T10:47:36;2.90;;;1.50;;
40591;SDS011;26301;42.832;23.918;2024-01-25T10:50:02;5.10;;;1.50;;
40591;SDS011;26301;42.832;23.918;2024-01-25T10:52:30;6.90;;;1.70;;
40591;SDS011;26301;42.832;23.918;2024-01-25T10:54:56;6.28;;;2.78;;
40591;SDS011;26301;42.832;23.918;2024-01-25T10:57:22;6.05;;;1.45;;
40591;SDS011;26301;42.832;23.918;2024-01-25T10:59:48;4.25;;;1.52;;
40591;SDS011;26301;42.832;23.918;2024-01-25T11:02:14;6.30;;;2.58;;
40591;SDS011;26301;42.832;23.918;2024-01-25T11:04:51;5.82;;;2.25;;
40591;SDS011;26301;42.832;23.918;2024-01-25T11:07:19;4.35;;;1.52;;
40591;SDS011;26301;42.832;23.918;2024-01-25T11:09:44;7.97;;;2.20;;
40591;SDS011;26301;42.832;23.918;2024-01-25T11:12:13;6.30;;;2.08;;
40591;SDS011;26301;42.832;23.918;2024-01-25T11:14:39;3.72;;;1.80;;
40591;SDS011;26301;42.832;23.918;2024-01-25T11:20:00;3.72;;;1.58;;
40591;SDS011;26301;42.832;23.918;2024-01-25T11:22:34;8.82;;;2.17;;
40591;SDS011;26301;42.832;23.918;2024-01-25T11:25:10;3.45;;;1.83;;
40591;SDS011;26301;42.832;23.918;2024-01-25T11:27:37;7.13;;;1.58;;
40591;SDS011;26301;42.832;23.918;2024-01-25T11:30:03;4.93;;;1.60;;
40591;SDS011;26301;42.832;23.918;2024-01-25T11:32:33;4.60;;;1.55;;
40591;SDS011;26301;42.832;23.918;2024-01-25T11:34:59;4.75;;;1.40;;
40591;SDS011;26301;42.832;23.918;2024-01-25T11:37:24;6.53;;;1.80;;
40591;SDS011;26301;42.832;23.918;2024-01-25T11:39:50;5.95;;;1.92;;
40591;SDS011;26301;42.832;23.918;2024-01-25T11:42:16;7.45;;;2.20;;
40591;SDS011;26301;42.832;23.918;2024-01-25T11:44:42;5.00;;;2.03;;
40591;SDS011;26301;42.832;23.918;2024-01-25T11:47:07;6.15;;;2.85;;
40591;SDS011;26301;42.832;23.918;2024-01-25T11:49:34;6.38;;;1.83;;
40591;SDS011;26301;42.832;23.918;2024-01-25T11:52:00;7.63;;;2.35;;
40591;SDS011;26301;42.832;23.918;2024-01-25T11:54:27;4.50;;;1.80;;
40591;SDS011;26301;42.832;23.918;2024-01-25T11:56:52;5.55;;;2.17;;
40591;SDS011;26301;42.832;23.918;2024-01-25T11:59:18;7.13;;;1.77;;
40591;SDS011;26301;42.832;23.918;2024-01-25T12:01:44;3.85;;;1.42;;
40591;SDS011;26301;42.832;23.918;2024-01-25T12:04:10;8.93;;;2.00;;
40591;SDS011;26301;42.832;23.918;2024-01-25T12:06:35;6.18;;;1.60;;
40591;SDS011;26301;42.832;23.918;2024-01-25T12:09:08;5.03;;;1.67;;
40591;SDS011;26301;42.832;23.918;2024-01-25T12:13:59;8.63;;;1.83;;
40591;SDS011;26301;42.832;23.918;2024-01-25T12:16:25;5.95;;;1.90;;
40591;SDS011;26301;42.832;23.918;2024-01-25T12:18:50;7.68;;;1.83;;
40591;SDS011;26301;42.832;23.918;2024-01-25T12:21:15;9.32;;;1.75;;
40591;SDS011;26301;42.832;23.918;2024-01-25T12:23:42;8.43;;;2.17;;
40591;SDS011;26301;42.832;23.918;2024-01-25T12:26:09;6.30;;;1.90;;
40591;SDS011;26301;42.832;23.918;2024-01-25T12:28:35;7.32;;;2.25;;
40591;SDS011;26301;42.832;23.918;2024-01-25T12:31:02;6.93;;;2.00;;
40591;SDS011;26301;42.832;23.918;2024-01-25T12:33:29;11.10;;;3.45;;
40591;SDS011;26301;42.832;23.918;2024-01-25T12:35:55;7.35;;;2.20;;
40591;SDS011;26301;42.832;23.918;2024-01-25T12:38:24;6.30;;;2.15;;
40591;SDS011;26301;42.832;23.918;2024-01-25T12:40:51;9.07;;;2.20;;
40591;SDS011;26301;42.832;23.918;2024-01-25T12:43:17;4.97;;;1.92;;
40591;SDS011;26301;42.832;23.918;2024-01-25T12:45:43;7.50;;;2.45;;
40591;SDS011;26301;42.832;23.918;2024-01-25T12:48:09;6.63;;;2.50;;
40591;SDS011;26301;42.832;23.918;2024-01-25T12:50:35;5.82;;;2.03;;
40591;SDS011;26301;42.832;23.918;2024-01-25T12:53:01;5.53;;;2.30;;
40591;SDS011;26301;42.832;23.918;2024-01-25T12:55:28;6.35;;;1.95;;
40591;SDS011;26301;42.832;23.918;2024-01-25T12:57:54;9.63;;;2.40;;
40591;SDS011;26301;42.832;23.918;2024-01-25T13:00:21;9.77;;;2.53;;
40591;SDS011;26301;42.832;23.918;2024-01-25T13:02:46;8.00;;;2.50;;
40591;SDS011;26301;42.832;23.918;2024-01-25T13:05:12;7.63;;;1.98;;
40591;SDS011;26301;42.832;23.918;2024-01-25T13:07:38;8.40;;;2.25;;
40591;SDS011;26301;42.832;23.918;2024-01-25T13:10:03;9.38;;;2.22;;
40591;SDS011;26301;42.832;23.918;2024-01-25T13:12:29;7.85;;;1.80;;
40591;SDS011;26301;42.832;23.918;2024-01-25T13:14:55;6.18;;;1.90;;
40591;SDS011;26301;42.832;23.918;2024-01-25T13:17:20;5.75;;;1.73;;
40591;SDS011;26301;42.832;23.918;2024-01-25T13:19:48;7.53;;;2.28;;
40591;SDS011;26301;42.832;23.918;2024-01-25T13:22:13;8.48;;;2.10;;
40591;SDS011;26301;42.832;23.918;2024-01-25T13:24:39;10.02;;;2.40;;
40591;SDS011;26301;42.832;23.918;2024-01-25T13:27:05;6.68;;;2.33;;
40591;SDS011;26301;42.832;23.918;2024-01-25T13:29:30;7.70;;;1.85;;
40591;SDS011;26301;42.832;23.918;2024-01-25T13:31:56;7.45;;;2.28;;
40591;SDS011;26301;42.832;23.918;2024-01-25T13:34:21;5.55;;;2.00;;
40591;SDS011;26301;42.832;23.918;2024-01-25T13:36:46;9.65;;;2.50;;
40591;SDS011;26301;42.832;23.918;2024-01-25T13:39:12;6.90;;;1.80;;
40591;SDS011;26301;42.832;23.918;2024-01-25T13:41:37;6.65;;;1.88;;
40591;SDS011;26301;42.832;23.918;2024-01-25T13:44:03;7.40;;;2.10;;
40591;SDS011;26301;42.832;23.918;2024-01-25T13:46:28;5.75;;;1.90;;
40591;SDS011;26301;42.832;23.918;2024-01-25T13:48:54;8.35;;;2.13;;
40591;SDS011;26301;42.832;23.918;2024-01-25T13:51:19;5.00;;;1.80;;
40591;SDS011;26301;42.832;23.918;2024-01-25T13:53:45;7.30;;;2.67;;
40591;SDS011;26301;42.832;23.918;2024-01-25T13:56:12;5.28;;;2.13;;
40591;SDS011;26301;42.832;23.918;2024-01-25T13:58:38;9.32;;;2.20;;
40591;SDS011;26301;42.832;23.918;2024-01-25T14:01:03;5.60;;;2.20;;
40591;SDS011;26301;42.832;23.918;2024-01-25T14:03:29;9.07;;;2.90;;
40591;SDS011;26301;42.832;23.918;2024-01-25T14:05:56;10.15;;;2.28;;
40591;SDS011;26301;42.832;23.918;2024-01-25T14:08:22;7.38;;;2.35;;
40591;SDS011;26301;42.832;23.918;2024-01-25T14:10:48;5.72;;;2.08;;
40591;SDS011;26301;42.832;23.918;2024-01-25T14:13:14;9.52;;;2.60;;
40591;SDS011;26301;42.832;23.918;2024-01-25T14:15:39;7.05;;;2.20;;
40591;SDS011;26301;42.832;23.918;2024-01-25T14:18:05;11.07;;;2.40;;
40591;SDS011;26301;42.832;23.918;2024-01-25T14:20:30;7.05;;;1.85;;
40591;SDS011;26301;42.832;23.918;2024-01-25T14:22:56;7.25;;;1.90;;
40591;SDS011;26301;42.832;23.918;2024-01-25T14:25:21;8.63;;;2.13;;
40591;SDS011;26301;42.832;23.918;2024-01-25T14:27:47;8.13;;;2.60;;
40591;SDS011;26301;42.832;23.918;2024-01-25T14:30:14;8.32;;;2.25;;